Flight Track Log - Related Links

Times and Time Zones

All times are in EDT time to prevent confusion due to time zone crossing. See the UAL4380 flight status page for this flight to view local times or setup timezone preferences in your user account.

Time Position Orientation Groundspeed Altitude Reporting Facility
EDT Latitude Longitude Course Direction KTS MPH feet Rate Location/Type
Fri 09:11:35 AM 29.9803 -95.2956 78° East 155 178 1,500  Level Houston Center
Fri 09:12:37 AM 30.0358 -95.2814 12° North 242 278 3,700 1,648 Climbing Houston Center
Fri 09:13:06 AM 30.0672 -95.2769 North 243 280 4,000 393 Climbing Houston Center
Fri 09:13:38 AM 30.1106 -95.2725 North 287 330 4,100 1,161 Climbing Houston Center
Fri 09:14:08 AM 30.1453 -95.2694 North 264 304 5,200 2,543 Climbing Houston Center
Fri 09:15:10 AM 30.2264 -95.2806 353° North 293 337 8,000 2,661 Climbing Houston Center
Fri 09:16:12 AM 30.3078 -95.3019 347° North 300 345 10,700 2,098 Climbing Houston Center
Fri 09:17:13 AM 30.3944 -95.3242 348° North 311 358 12,300 1,512 Climbing Houston Center
Fri 09:18:15 AM 30.5094 -95.3561 347° North 344 396 13,800 1,258 Climbing Houston Center
Fri 09:19:17 AM 30.6111 -95.3917 343° North 391 450 14,900 1,016 Climbing Houston Center
Fri 09:20:19 AM 30.7003 -95.4522 330° Northwest 395 455 15,900 1,220 Climbing Houston Center
Fri 09:21:20 AM 30.8031 -95.4936 341° North 389 448 17,400 1,366 Climbing Houston Center
Fri 09:22:22 AM 30.9050 -95.5319 342° North 384 442 18,700 1,258 Climbing Houston Center
Fri 09:23:24 AM 31.0069 -95.5717 342° North 384 442 20,000 629 Climbing Houston Center
Fri 09:24:26 AM 31.1158 -95.6178 340° North 409 471 20,000  Level Houston Center
Fri 09:25:06 AM 31.1906 -95.6528 338° Northwest 419 482 20,000  Level Fort Worth Center
Fri 09:26:06 AM 31.2958 -95.7139 334° Northwest 419 482 20,000  Level Fort Worth Center
Fri 09:27:06 AM 31.4075 -95.7825 332° Northwest 413 475 20,000  Level Fort Worth Center
Fri 09:28:06 AM 31.5042 -95.8492 330° Northwest 413 475 20,000  Level Fort Worth Center
Fri 09:29:06 AM 31.6117 -95.9206 331° Northwest 418 481 20,000  Level Fort Worth Center
Fri 09:30:06 AM 31.7083 -95.9822 332° Northwest 411 473 20,000 -200 Level Fort Worth Center
Fri 09:31:06 AM 31.8111 -96.0322 338° Northwest 401 461 19,600 -1,000 Descending Fort Worth Center
Fri 09:32:06 AM 31.9203 -96.0794 340° North 437 503 18,000 -1,500 Descending Fort Worth Center
Fri 09:33:06 AM 32.0208 -96.1219 340° North 403 464 16,600 -1,500 Descending Fort Worth Center
Fri 09:34:06 AM 32.1153 -96.1625 340° North 366 421 15,000 -1,650 Descending Fort Worth Center
Fri 09:35:06 AM 32.2075 -96.2028 340° North 356 410 13,300 -1,800 Descending Fort Worth Center
Fri 09:36:06 AM 32.2956 -96.2436 339° North 344 396 11,400 -1,850 Descending Fort Worth Center
Fri 09:37:06 AM 32.3753 -96.2819 338° Northwest 320 368 9,600 -1,200 Descending Fort Worth Center
Fri 09:38:06 AM 32.4467 -96.3350 328° Northwest 306 352 9,000 -550 Descending Fort Worth Center
Fri 09:39:06 AM 32.5139 -96.3886 326° Northwest 292 336 8,500 -750 Descending Fort Worth Center
Fri 09:40:06 AM 32.5811 -96.4444 325° Northwest 292 336 7,500 -1,050 Descending Fort Worth Center
Fri 09:41:06 AM 32.6422 -96.4981 324° Northwest 282 325 6,400 -1,050 Descending Fort Worth Center
Fri 09:42:06 AM 32.6989 -96.5494 323° Northwest 273 314 5,400 -700 Descending Fort Worth Center
Fri 09:43:06 AM 32.7492 -96.5908 325° Northwest 257 296 5,000 -200 Descending Fort Worth Center
Fri 09:44:06 AM 32.8122 -96.6397 327° Northwest 247 284 5,000 -50 Level Fort Worth Center
Fri 09:45:05 AM 32.8667 -96.6833 326° Northwest 226 260 4,900 -454 Descending Dallas / Fort Worth TRACON
Fri 09:46:05 AM 32.9167 -96.7167 331° Northwest 213 245 4,100 -550 Descending Dallas / Fort Worth TRACON
Fri 09:47:05 AM 32.9667 -96.7500 331° Northwest 203 234 3,800 -574 Descending Dallas / Fort Worth TRACON
Fri 09:48:00 AM 32.9833 -96.8000 292° West 177 204 3,000 -421 Descending Dallas / Fort Worth TRACON
Fri 09:48:59 AM 33.0000 -96.8500 292° West 174 200 3,000  Level Dallas / Fort Worth TRACON
Fri 09:49:54 AM 32.9833 -96.8833 239° Southwest 153 176 3,000 -261 Level Dallas / Fort Worth TRACON
Fri 09:50:54 AM 32.9500 -96.9167 220° Southwest 154 177 2,500 -526 Descending Dallas / Fort Worth TRACON
Fri 09:51:48 AM 32.9167 -96.9000 157° South 139 160 2,000 -526 Descending Dallas / Fort Worth TRACON
Fri 09:52:48 AM 32.8833 -96.8833 157° South 112 129 1,500 -600 Descending Dallas / Fort Worth TRACON
Fri 09:53:48 AM 32.8667 -96.8667 140° Southeast 115 132 800 -700 Descending Dallas / Fort Worth TRACON
Fri 09:55:00 AM 32.8471 -96.8518 196° South  Level Estimated
Fri 10:02:00 AM 32.8471 -96.8518 196° South  Level Estimated

Login

Don't have an account? Register now (free) for customized features, flight alerts, and more!